Latest Coastal Weather Observations for Hindmarsh Island

IDS60701

Issued at 4:01 pm CST Saturday 27 August 2016 (issued every 10 minutes, with the page automatically refreshed every 10 minutes)

About coastal observations | Map of coastal stations | Coastal observations for SA | Marine services | Other Formats
Station Details ID: 023894 Name: HINDMARSH ISLAND AWS Lat: -35.52 Lon: 138.82 Height: 11.0 m
Data from the previous 72 hours. | See also: Recent months at Hindmarsh Island
Date/Time
CST
Temp
°C
Wind Pressure Rain since
9am
mm
Weather Cloud Vis
km
Sea
Height
m
Swell
Dir  Spd
kts
Gust
kts
hPa Trend Height
m
Period
s
Dir
27/04:00pm 16.9 NNW 12 19 1017.9 - 0.0 - - - - - - -
27/03:30pm 16.6 NNW 13 19 1017.8 - 0.0 - - - - - - -
27/03:00pm 16.8 NNW 15 19 1018.0 - 0.0 - - - - - - -
27/02:30pm 16.8 NW 15 22 1018.0 - 0.0 - - - - - - -
27/02:00pm 16.7 NNW 16 22 1018.3 - 0.0 - - - - - - -
27/01:30pm 16.8 NW 14 19 1019.0 - 0.0 - - - - - - -
27/01:00pm 17.3 NW 15 22 1019.2 - 0.0 - - - - - - -
27/12:30pm 17.6 NNW 15 21 1019.4 - 0.0 - - - - - - -
27/12:00pm 17.7 NNW 13 21 1020.0 - 0.0 - - - - - - -
27/11:30am 16.5 NW 15 21 1020.6 - 0.0 - - - - - - -
27/11:00am 16.5 NW 14 21 1020.9 - 0.0 - - - - - - -
27/10:30am 15.4 N 11 15 1020.9 - 0.0 - - - - - - -
27/10:00am 14.1 N 13 20 1021.1 - 0.0 - - - - - - -
27/09:30am 12.4 NNE 5 7 1021.7 - 0.0 - - - - - - -
27/09:00am 10.4 NE 6 8 1021.9 - 0.0 - - - - - - -
27/08:30am 10.1 N 5 7 1022.1 - 0.0 - - - - - - -
27/08:00am 8.0 ESE 3 4 1022.1 - 0.0 - - - - - - -
27/07:30am 7.5 N 8 9 1021.6 - 0.0 - - - - - - -
27/07:00am 5.6 N 8 9 1021.5 - 0.0 - - - - - - -
27/06:30am 5.4 N 7 8 1021.6 - 0.0 - - - - - - -
27/06:00am 6.2 N 8 10 1021.4 - 0.0 - - - - - - -
27/05:30am 5.9 N 7 8 1021.6 - 0.0 - - - - - - -
27/05:00am 6.1 N 7 8 1021.6 - 0.0 - - - - - - -
27/04:30am 6.5 N 7 9 1021.6 - 0.0 - - - - - - -
27/04:00am 6.1 N 8 9 1021.6 - 0.0 - - - - - - -
27/03:30am 6.1 N 7 8 1021.7 - 0.0 - - - - - - -
27/03:00am 6.6 N 7 9 1022.0 - 0.0 - - - - - - -
27/02:30am 6.5 N 6 6 1022.3 - 0.0 - - - - - - -
27/02:00am 7.0 N 6 7 1022.5 - 0.0 - - - - - - -
27/01:30am 7.3 N 5 7 1022.8 - 0.0 - - - - - - -
27/01:00am 7.6 N 6 7 1022.6 - 0.0 - - - - - - -
27/12:30am 8.1 NW 6 7 1022.9 - 0.0 - - - - - - -
27/12:00am 8.8 N 6 7 1022.7 - 0.0 - - - - - - -
 
Date/Time
CST
Temp
°C
Wind Pressure Rain since
9am
mm
Weather Cloud Vis
km
Sea
Height
m
Swell
Dir  Spd
kts
Gust
kts
hPa Trend Height
m
Period
s
Dir
26/11:30pm 8.9 NNW 7 8 1023.1 - 0.0 - - - - - - -
26/11:00pm 9.3 NNW 7 9 1023.2 - 0.0 - - - - - - -
26/10:30pm 9.7 NNW 7 9 1023.5 - 0.0 - - - - - - -
26/10:00pm 9.8 NNW 7 9 1023.8 - 0.0 - - - - - - -
26/09:30pm 10.6 NNW 7 9 1023.9 - 0.0 - - - - - - -
26/09:00pm 10.5 NNW 6 7 1023.8 - 0.0 - - - - - - -
26/08:30pm 10.6 NNW 6 8 1023.8 - 0.0 - - - - - - -
26/08:00pm 10.6 NW 5 6 1023.9 - 0.0 - - - - - - -
26/07:30pm 11.0 NW 4 7 1023.9 - 0.0 - - - - - - -
26/07:00pm 11.6 WNW 6 8 1024.0 - 0.0 - - - - - - -
26/06:30pm 11.4 NW 6 6 1023.6 - 0.0 - - - - - - -
26/06:00pm 11.7 WNW 4 5 1023.3 - 0.0 - - - - - - -
26/05:30pm 12.1 W 6 8 1023.1 - 0.0 - - - - - - -
26/05:00pm 13.1 W 10 13 1023.2 - 0.0 - - - - - - -
26/04:30pm 13.0 W 8 13 1022.7 - 0.0 - - - - - - -
26/04:00pm 13.4 WNW 8 11 1022.7 - 0.0 - - - - - - -
26/03:30pm 13.4 W 8 11 1022.7 - 0.0 - - - - - - -
26/03:00pm 13.5 WNW 7 11 1022.8 - 0.0 - - - - - - -
26/02:30pm 13.4 NW 8 12 1023.0 - 0.0 - - - - - - -
26/02:00pm 13.6 SW 10 12 1023.1 - 0.0 - - - - - - -
26/01:30pm 13.9 WNW 8 10 1023.3 - 0.0 - - - - - - -
26/01:00pm 13.6 SW 8 11 1023.5 - 0.0 - - - - - - -
26/12:30pm 13.0 SW 10 12 1024.0 - 0.0 - - - - - - -
26/12:00pm 13.1 W 7 9 1024.3 - 0.0 - - - - - - -
26/11:30am 13.0 W 8 11 1024.8 - 0.0 - - - - - - -
26/11:00am 13.2 W 8 10 1024.9 - 0.0 - - - - - - -
26/10:30am 13.5 W 7 10 1024.9 - 0.0 - - - - - - -
26/10:00am 13.2 W 8 11 1024.9 - 0.0 - - - - - - -
26/09:30am 12.5 W 10 14 1025.1 - 0.0 - - - - - - -
26/09:00am 11.9 W 10 13 1024.9 - 0.2 - - - - - - -
26/08:30am 11.5 W 11 15 1024.8 - 0.2 - - - - - - -
26/08:00am 11.1 W 9 13 1024.5 - 0.2 - - - - - - -
26/07:30am 11.1 W 10 14 1024.3 - 0.2 - - - - - - -
26/07:00am 10.8 W 9 14 1024.1 - 0.2 - - - - - - -
26/06:30am 10.4 WNW 7 9 1023.8 - 0.2 - - - - - - -
26/06:00am 11.0 W 8 11 1023.4 - 0.2 - - - - - - -
26/05:30am 10.5 W 8 11 1023.1 - 0.2 - - - - - - -
26/05:00am 10.2 WNW 6 9 1022.9 - 0.2 - - - - - - -
26/04:30am 10.4 W 7 11 1022.7 - 0.2 - - - - - - -
26/04:00am 9.9 WNW 3 5 1022.6 - 0.2 - - - - - - -
26/03:30am 9.9 WNW 5 7 1022.6 - 0.2 - - - - - - -
26/03:00am 10.0 WNW 5 6 1022.8 - 0.2 - - - - - - -
26/02:30am 9.9 NW 4 5 1022.8 - 0.2 - - - - - - -
26/02:00am 10.7 S 7 8 1022.9 - 0.2 - - - - - - -
26/01:30am 11.3 S 10 13 1022.8 - 0.2 - - - - - - -
26/01:00am 11.2 S 11 13 1022.7 - 0.2 - - - - - - -
26/12:30am 11.0 S 11 14 1022.6 - 0.2 - - - - - - -
26/12:00am 10.9 S 10 11 1022.7 - 0.2 - - - - - - -
 
Date/Time
CST
Temp
°C
Wind Pressure Rain since
9am
mm
Weather Cloud Vis
km
Sea
Height
m
Swell
Dir  Spd
kts
Gust
kts
hPa Trend Height
m
Period
s
Dir
25/11:30pm 10.9 S 10 12 1022.8 - 0.2 - - - - - - -
25/11:00pm 11.3 SSW 12 14 1022.5 - 0.2 - - - - - - -
25/10:30pm 11.2 SSW 13 16 1022.6 - 0.2 - - - - - - -
25/10:00pm 11.4 SSW 13 17 1022.6 - 0.2 - - - - - - -
25/09:30pm 10.9 SW 10 12 1022.6 - 0.2 - - - - - - -
25/09:00pm 11.0 W 5 7 1022.6 - 0.2 - - - - - - -
25/08:30pm 10.9 W 6 8 1022.5 - 0.2 - - - - - - -
25/08:00pm 11.1 W 8 12 1022.5 - 0.2 - - - - - - -
25/07:30pm 11.4 SSW 9 11 1022.1 - 0.2 - - - - - - -
25/07:00pm 11.3 SSW 11 14 1021.9 - 0.2 - - - - - - -
25/06:30pm 11.2 SSW 14 17 1021.5 - 0.2 - - - - - - -
25/06:00pm 10.8 SSW 7 15 1021.3 - 0.2 - - - - - - -
25/05:30pm 10.3 SSW 8 10 1021.2 - 0.2 - - - - - - -
25/05:00pm 11.8 SSW 12 14 1020.8 - 0.0 - - - - - - -
25/04:30pm 12.7 SW 12 14 1020.5 - 0.0 - - - - - - -
25/04:00pm 13.2 SW 11 13 1020.3 - 0.0 - - - - - - -
25/03:30pm 13.2 WSW 12 15 1020.2 - 0.0 - - - - - - -
25/03:00pm 13.6 SSW 13 16 1020.0 - 0.0 - - - - - - -
25/02:30pm 12.7 S 11 13 1020.0 - 0.0 - - - - - - -
25/02:00pm 12.3 S 10 12 1020.0 - 0.0 - - - - - - -
25/01:30pm 11.4 S 17 21 1020.0 - 0.0 - - - - - - -
25/01:29pm 11.4 S 19 21 1020.0 - 0.0 - - - - - - -
25/01:18pm 11.3 S 21 28 1019.8 - 0.0 - - - - - - -
25/01:16pm 12.5 SSW 23 26 1019.8 - 0.0 - - - - - - -
25/01:13pm 12.3 SSW 18 27 1019.8 - 0.0 - - - - - - -
25/01:00pm 14.7 SW 13 16 1019.9 - 0.0 - - - - - - -
25/12:30pm 14.6 SSW 10 13 1020.3 - 0.0 - - - - - - -
25/12:00pm 14.1 SW 11 14 1020.5 - 0.0 - - - - - - -
25/11:30am 14.2 SW 10 13 1020.5 - 0.0 - - - - - - -
25/11:00am 13.7 SW 7 10 1020.6 - 0.0 - - - - - - -
25/10:30am 13.4 SW 7 10 1020.6 - 0.0 - - - - - - -
25/10:00am 12.9 WSW 6 8 1020.5 - 0.0 - - - - - - -
25/09:30am 12.1 NW 5 6 1020.4 - 0.0 - - - - - - -
25/09:00am 10.9 NNW 5 7 1020.2 - 0.0 - - - - - - -
25/08:30am 9.5 NNW 6 7 1019.9 - 0.0 - - - - - - -
25/08:00am 7.9 NNW 5 7 1019.6 - 0.0 - - - - - - -
25/07:30am 6.0 NW 4 5 1019.4 - 0.0 - - - - - - -
25/07:00am 5.3 N 7 9 1019.1 - 0.0 - - - - - - -
25/06:30am 5.0 NW 6 7 1018.9 - 0.0 - - - - - - -
25/06:00am 5.5 NNW 6 6 1018.3 - 0.0 - - - - - - -
25/05:30am 5.5 NNW 2 4 1018.3 - 0.0 - - - - - - -
25/05:00am 6.1 NNW 6 6 1017.9 - 0.0 - - - - - - -
25/04:30am 6.0 NNW 6 7 1017.7 - 0.0 - - - - - - -
25/04:00am 5.8 N 6 7 1017.5 - 0.0 - - - - - - -
25/03:30am 6.1 N 5 7 1017.4 - 0.0 - - - - - - -
25/03:00am 6.3 N 5 6 1017.4 - 0.0 - - - - - - -
25/02:30am 6.8 NE 7 8 1017.6 - 0.0 - - - - - - -
25/02:00am 6.3 E 6 8 1017.6 - 0.0 - - - - - - -
25/01:30am 8.3 ESE 4 7 1017.5 - 0.0 - - - - - - -
25/01:00am 8.3 ESE 5 6 1017.6 - 0.0 - - - - - - -
25/12:30am 8.7 SE 5 6 1017.5 - 0.0 - - - - - - -
25/12:00am 9.4 SE 5 6 1017.5 - 0.0 - - - - - - -
 
Date/Time
CST
Temp
°C
Wind Pressure Rain since
9am
mm
Weather Cloud Vis
km
Sea
Height
m
Swell
Dir  Spd
kts
Gust
kts
hPa Trend Height
m
Period
s
Dir
24/11:30pm 8.4 ESE 5 6 1017.6 - 0.0 - - - - - - -
24/11:00pm 10.1 SE 8 9 1017.6 - 0.0 - - - - - - -
24/10:30pm 10.4 SSE 9 11 1017.8 - 0.0 - - - - - - -
24/10:00pm 10.6 SSE 10 12 1017.8 - 0.0 - - - - - - -
24/09:30pm 10.6 SSE 9 11 1017.7 - 0.0 - - - - - - -
24/09:00pm 10.9 SE 11 13 1017.5 - 0.0 - - - - - - -
24/08:30pm 10.7 SSE 10 12 1017.3 - 0.0 - - - - - - -
24/08:00pm 10.6 SSE 9 11 1017.2 - 0.0 - - - - - - -
24/07:30pm 10.5 SSE 9 12 1017.2 - 0.0 - - - - - - -
24/07:00pm 10.8 SE 9 11 1016.9 - 0.0 - - - - - - -
24/06:30pm 10.8 SSE 11 13 1016.6 - 0.0 - - - - - - -
24/06:00pm 11.0 SSE 13 16 1016.2 - 0.0 - - - - - - -
24/05:30pm 11.4 SE 14 16 1015.8 - 0.0 - - - - - - -
24/05:00pm 11.9 SSE 14 17 1015.6 - 0.0 - - - - - - -
24/04:30pm 12.3 SE 14 17 1015.2 - 0.0 - - - - - - -

Other Formats:

Comma delimited format used in spreadsheet applications
http://www.bom.gov.au/fwo/IDS60701/IDS60701.94677.axf

JavaScript Object Notation format (JSON) in row-major order
http://www.bom.gov.au/fwo/IDS60701/IDS60701.94677.json